Flight Track Log - Related Links

Times and Time Zones

All times are in EDT time to prevent confusion due to time zone crossing. See the N700EG flight status page for this flight to view local times or setup timezone preferences in your user account.

Time Position Orientation Groundspeed Altitude Reporting Facility
EDT Latitude Longitude Course Direction KTS MPH feet Rate Location/Type
Wed 03:32:32 PM 35.1306 -83.4419 171° South 277 319 8,000  Level Atlanta Center
Wed 03:33:32 PM 35.0825 -83.4322 171° South 225 259 9,800 1,550 Climbing Atlanta Center
Wed 03:34:32 PM 35.0386 -83.4275 175° South 177 204 11,100 1,350 Climbing Atlanta Center
Wed 03:35:32 PM 34.9928 -83.4278 180° South 172 198 12,500 1,250 Climbing Atlanta Center
Wed 03:36:32 PM 34.9489 -83.4053 157° South 167 192 13,600 1,200 Climbing Atlanta Center
Wed 03:37:32 PM 34.9028 -83.3778 154° Southeast 167 192 14,900 1,300 Climbing Atlanta Center
Wed 03:38:32 PM 34.8608 -83.3400 144° Southeast 177 204 16,200 1,300 Climbing Atlanta Center
Wed 03:39:32 PM 34.8169 -83.3100 151° Southeast 182 209 17,500 1,200 Climbing Atlanta Center
Wed 03:40:32 PM 34.7750 -83.2775 148° Southeast 182 209 18,600 650 Climbing Atlanta Center
Wed 03:41:32 PM 34.7206 -83.2553 161° South 189 217 18,800 100 Climbing Atlanta Center
Wed 03:42:32 PM 34.6453 -83.2486 176° South 229 264 18,800 600 Level Atlanta Center
Wed 03:43:32 PM 34.5764 -83.2442 177° South 252 290 20,000 1,050 Climbing Atlanta Center
Wed 03:44:32 PM 34.5139 -83.2397 177° South 252 290 20,900 750 Climbing Atlanta Center
Wed 03:45:32 PM 34.4511 -83.2353 177° South 241 277 21,500 700 Climbing Atlanta Center
Wed 03:46:32 PM 34.3842 -83.2258 173° South 236 272 22,300 900 Climbing Atlanta Center
Wed 03:47:32 PM 34.3236 -83.2214 177° South 230 265 23,300 800 Climbing Atlanta Center
Wed 03:48:32 PM 34.2611 -83.2169 177° South 230 265 23,900 750 Climbing Atlanta Center
Wed 03:49:32 PM 34.1983 -83.2100 175° South 230 265 24,800 900 Climbing Atlanta Center
Wed 03:50:32 PM 34.1419 -83.2056 176° South 225 259 25,700 600 Climbing Atlanta Center
Wed 03:51:32 PM 34.0814 -83.2011 177° South 220 253 26,000 150 Climbing Atlanta Center
Wed 03:52:32 PM 34.0147 -83.1942 175° South 226 260 26,000  Level Atlanta Center
Wed 03:53:32 PM 33.9436 -83.1900 177° South 241 277 26,000  Level Atlanta Center
Wed 03:54:32 PM 33.8706 -83.1831 175° South 259 298 26,000  Level Atlanta Center
Wed 03:55:32 PM 33.7975 -83.1764 176° South 264 304 26,000  Level Atlanta Center
Wed 03:56:32 PM 33.7264 -83.1694 175° South 264 304 26,000 -50 Level Atlanta Center
Wed 03:57:32 PM 33.6533 -83.1653 177° South 264 304 25,900  Descending Atlanta Center
Wed 03:58:32 PM 33.5781 -83.1586 176° South 269 310 26,000 50 Climbing Atlanta Center
Wed 03:59:32 PM 33.5050 -83.1494 174° South 274 315 26,000 -50 Level Atlanta Center
Wed 04:00:32 PM 33.4319 -83.1478 179° South 268 308 25,900 -50 Descending Atlanta Center
Wed 04:01:32 PM 33.3589 -83.1386 174° South 273 314 25,900 50 Level Atlanta Center
Wed 04:02:32 PM 33.2836 -83.1342 177° South 273 314 26,000  Climbing Atlanta Center
Wed 04:03:32 PM 33.2086 -83.1275 176° South 273 314 25,900 -50 Descending Atlanta Center
Wed 04:04:32 PM 33.1353 -83.1208 176° South 268 308 25,900  Level Atlanta Center
Wed 04:05:32 PM 33.0622 -83.1167 177° South 268 308 25,900  Level Atlanta Center
Wed 04:06:32 PM 32.9914 -83.1075 174° South 268 308 25,900  Level Atlanta Center
Wed 04:07:32 PM 32.9181 -83.0986 174° South 268 308 25,900  Level Atlanta Center
Wed 04:08:32 PM 32.8450 -83.0944 177° South 273 314 25,900  Level Atlanta Center
Wed 04:09:32 PM 32.7742 -83.0878 175° South 273 314 25,900 50 Level Atlanta Center
Wed 04:10:32 PM 32.7031 -83.0861 179° South 268 308 26,000  Climbing Atlanta Center
Wed 04:11:32 PM 32.6278 -83.0769 174° South 268 308 25,900  Descending Atlanta Center
Wed 04:12:32 PM 32.5547 -83.0703 176° South 268 308 26,000 50 Climbing Atlanta Center
Wed 04:13:32 PM 32.4817 -83.0636 176° South 268 308 26,000 -50 Level Atlanta Center
Wed 04:14:32 PM 32.4086 -83.0572 176° South 268 308 25,900 -50 Descending Atlanta Center
Wed 04:15:32 PM 32.3353 -83.0506 176° South 268 308 25,900  Level Atlanta Center
Wed 04:16:32 PM 32.2622 -83.0442 176° South 273 314 25,900  Level Atlanta Center
Wed 04:18:59 PM 32.0892 -83.0275 175° South 273 314 25,900  Level Jacksonville Center
Wed 04:19:59 PM 32.0161 -83.0225 177° South 273 314 25,900  Level Jacksonville Center
Wed 04:20:59 PM 31.9411 -83.0150 175° South 273 314 25,900  Level Jacksonville Center
Wed 04:21:59 PM 31.8681 -83.0100 188° South 273 314 25,900 50 Level Jacksonville Center
Wed 04:22:00 PM 31.8689 -83.0263 188° South  Level FlightAware Approximate
Wed 04:22:59 PM 31.7947 -83.0025 175° South 273 314 26,000  Level Jacksonville Center
Wed 04:23:59 PM 31.7217 -83.0097 185° South 273 314 26,000  Level Jacksonville Center
Wed 04:24:59 PM 31.6425 -83.0244 189° South 273 314 26,000 -50 Level Jacksonville Center
Wed 04:25:59 PM 31.5672 -83.0414 191° South 273 314 25,900 -50 Descending Jacksonville Center
Wed 04:26:59 PM 31.4942 -83.0558 190° South 273 314 25,900  Level Jacksonville Center
Wed 04:27:59 PM 31.4231 -83.0703 190° South 273 314 25,900  Level Jacksonville Center
Wed 04:28:59 PM 31.3522 -83.0847 190° South 273 314 25,900 50 Level Jacksonville Center
Wed 04:29:59 PM 31.2769 -83.1017 191° South 273 314 26,000 -250 Climbing Jacksonville Center
Wed 04:30:59 PM 31.2058 -83.0794 165° South 268 308 25,400 -500 Descending Jacksonville Center
Wed 04:31:59 PM 31.1331 -83.0456 158° South 273 314 25,000 -200 Descending Jacksonville Center
Wed 04:32:59 PM 31.0619 -83.0139 159° South 279 321 25,000  Level Jacksonville Center
Wed 04:33:59 PM 30.9911 -82.9822 159° South 279 321 25,000  Level Jacksonville Center
Wed 04:34:59 PM 30.9242 -82.9531 160° South 268 308 25,000  Level Jacksonville Center
Wed 04:35:59 PM 30.8617 -82.9264 160° South 268 308 25,000  Level Jacksonville Center
Wed 04:36:59 PM 30.7906 -82.8950 159° South 268 308 25,000  Level Jacksonville Center
Wed 04:37:59 PM 30.7239 -82.8636 158° South 268 308 25,000  Level Jacksonville Center
Wed 04:38:59 PM 30.6528 -82.8322 159° South 268 308 25,000 -350 Level Jacksonville Center
Wed 04:39:59 PM 30.5817 -82.8008 159° South 268 308 24,300 -500 Descending Jacksonville Center
Wed 04:40:59 PM 30.5025 -82.7625 157° South 273 314 24,000 -150 Descending Jacksonville Center
Wed 04:41:59 PM 30.4314 -82.7286 158° South 273 314 24,000 -50 Level Jacksonville Center
Wed 04:42:59 PM 30.3603 -82.6975 159° South 273 314 23,900 -550 Descending Jacksonville Center
Wed 04:43:59 PM 30.2872 -82.6642 158° South 273 314 22,900 -650 Descending Jacksonville Center
Wed 04:44:59 PM 30.2183 -82.6378 162° South 278 320 22,600 -550 Descending Jacksonville Center
Wed 04:45:59 PM 30.1450 -82.6067 160° South 283 326 21,800 -750 Descending Jacksonville Center
Wed 04:46:59 PM 30.0719 -82.5733 158° South 288 331 21,100 -400 Descending Jacksonville Center
Wed 04:47:59 PM 29.9925 -82.5378 159° South 288 331 21,000 -50 Descending Jacksonville Center
Wed 04:48:59 PM 29.9256 -82.5067 158° South 278 320 21,000  Level Jacksonville Center
Wed 04:49:59 PM 29.8589 -82.4878 166° South 266 306 21,000  Level Jacksonville Center
Wed 04:50:59 PM 29.7878 -82.4714 169° South 261 300 21,000  Level Jacksonville Center
Wed 04:51:59 PM 29.7272 -82.4597 171° South 256 295 21,000  Level Jacksonville Center
Wed 04:52:59 PM 29.6561 -82.4456 170° South 256 295 21,000 -150 Level Jacksonville Center
Wed 04:53:59 PM 29.5831 -82.4292 169° South 261 300 20,700 -800 Descending Jacksonville Center
Wed 04:54:59 PM 29.5014 -82.4153 172° South 275 316 19,400 -4,850 Descending Jacksonville Center
Wed 04:55:59 PM 29.4242 -82.3989 170° South 289 333 11,000 -1,200 Descending Jacksonville Center
Wed 04:56:59 PM 29.3489 -82.3828 169° South 284 327 17,000 2,400 Climbing Jacksonville Center
Wed 04:57:59 PM 29.2739 -82.3664 169° South 279 321 15,800 -1,200 Descending Jacksonville Center
Wed 04:58:59 PM 29.1986 -82.3525 171° South 274 315 14,600 -1,150 Descending Jacksonville Center
Wed 04:59:59 PM 29.1256 -82.3364 169° South 274 315 13,500 -1,000 Descending Jacksonville Center
Wed 05:00:59 PM 29.0564 -82.3225 170° South 269 310 12,600 -800 Descending Jacksonville Center
Wed 05:01:59 PM 28.9897 -82.3086 170° South 263 303 11,900 -800 Descending Jacksonville Center
Wed 05:02:59 PM 28.9228 -82.2972 172° South 257 296 11,000 -500 Descending Jacksonville Center
Wed 05:03:59 PM 28.8600 -82.2808 167° South 252 290 10,900  Descending Jacksonville Center
Wed 05:06:10 PM 28.7164 -82.2583 172° South 239 275 11,000 32 Climbing Miami Center
Wed 05:07:08 PM 28.6500 -82.2500 174° South 246 283 11,000 -429 Level Tampa TRACON
Wed 05:08:02 PM 28.5833 -82.2833 204° Southwest 273 314 10,200 -750 Descending Tampa TRACON
Wed 05:09:08 PM 28.5500 -82.3500 240° Southwest 247 284 9,500 -762 Descending Tampa TRACON
Wed 05:10:08 PM 28.5000 -82.4167 230° Southwest 239 275 8,600 -1,000 Descending Tampa TRACON
Wed 05:11:08 PM 28.4667 -82.4833 240° Southwest 256 295 7,500 -900 Descending Tampa TRACON
Wed 05:12:08 PM 28.4167 -82.5500 230° Southwest 234 269 6,800 -1,000 Descending Tampa TRACON
Wed 05:13:02 PM 28.3833 -82.6000 233° Southwest 223 257 5,600 -1,000 Descending Tampa TRACON
Wed 05:14:02 PM 28.3500 -82.6500 233° Southwest 240 276 4,900 -368 Descending Tampa TRACON
Wed 05:14:56 PM 28.3167 -82.7000 233° Southwest 208 239 4,900 -48 Level Tampa TRACON
Wed 05:16:08 PM 28.2833 -82.7667 240° Southwest 208 239 4,800 -455 Descending Tampa TRACON
Wed 05:17:08 PM 28.2333 -82.8333 230° Southwest 232 267 3,900 -684 Descending Tampa TRACON
Wed 05:18:02 PM 28.1833 -82.8333 180° South 219 252 3,500 -474 Descending Tampa TRACON
Wed 05:19:02 PM 28.1333 -82.8500 196° South 208 239 3,000 -286 Descending Tampa TRACON
Wed 05:20:08 PM 28.0667 -82.8500 180° South 198 228 2,900 -48 Descending Tampa TRACON
Wed 05:21:08 PM 28.0167 -82.8333 164° South 169 194 2,900  Level Tampa TRACON
Wed 05:21:56 PM 27.9833 -82.8167 156° South 154 177 2,900 53 Level Tampa TRACON
Wed 05:23:02 PM 27.9333 -82.8167 180° South 145 167 3,000  Climbing Tampa TRACON
Wed 05:23:56 PM 27.9000 -82.8000 156° South 136 157 2,900 -263 Descending Tampa TRACON
Wed 05:24:56 PM 27.8667 -82.7833 156° South 144 166 2,500 -476 Descending Tampa TRACON
Wed 05:26:02 PM 27.8167 -82.7667 164° South 180 207 1,900 -286 Descending Tampa TRACON
Wed 05:27:02 PM 27.7833 -82.7500 156° South 152 175 1,900  Level Tampa TRACON
Wed 05:28:02 PM 27.7500 -82.7167 138° Southeast 146 168 1,900  Level Tampa TRACON
Wed 05:28:57 PM 27.7333 -82.6833 119° Southeast 138 159 1,900  Level Tampa TRACON
Wed 05:29:57 PM 27.7500 -82.6667 42° Northeast 137 158 1,900  Level Tampa TRACON
Wed 05:31:02 PM 27.8000 -82.6667 360° North 136 157 1,900 -250 Level Tampa TRACON
Wed 05:31:57 PM 27.8333 -82.6833 336° Northwest 144 166 1,400 -626 Descending Tampa TRACON
Wed 05:32:57 PM 27.8667 -82.6833 360° North 143 165 700 -700 Descending Tampa TRACON

Login

Don't have an account? Register now (free) for customized features, flight alerts, and more!